createdAt,value
2022-08-22T00:02:19.347Z,100012.56
2022-08-22T00:02:45.442Z,99945.16
2022-08-22T00:07:58.438Z,100006.94
2022-08-22T00:13:08.753Z,100013.53
2022-08-22T00:18:27.686Z,100006.22
2022-08-22T00:23:45.958Z,100004.31
2022-08-22T00:28:53.481Z,100014.13
2022-08-22T00:34:24.210Z,99991.00
2022-08-22T00:39:46.756Z,100008.72
2022-08-22T00:45:06.674Z,100010.38
2022-08-22T00:50:29.591Z,100003.28
2022-08-22T00:55:43.293Z,100000.19
2022-08-22T01:00:52.556Z,99999.53
2022-08-22T01:06:27.119Z,99998.78
2022-08-22T01:11:49.954Z,100002.53
2022-08-22T01:17:21.270Z,100000.03
2022-08-22T01:22:48.938Z,99992.72
2022-08-22T01:28:10.058Z,99994.22
2022-08-22T01:33:50.233Z,99994.00
2022-08-22T01:39:00.858Z,99985.69
2022-08-22T01:44:10.250Z,99987.56
2022-08-22T01:49:22.965Z,99987.16
2022-08-22T01:54:33.391Z,99983.81
2022-08-22T01:59:45.979Z,99976.28
2022-08-22T02:04:59.699Z,99987.50
2022-08-22T02:10:42.031Z,99978.53
2022-08-22T02:15:54.376Z,99980.59
2022-08-22T02:21:34.179Z,99981.19
2022-08-22T02:26:51.281Z,99977.00
2022-08-22T02:32:00.855Z,99971.38
2022-08-22T02:37:05.227Z,99973.25
2022-08-22T02:42:48.805Z,99974.28
2022-08-22T02:48:00.589Z,99975.09
2022-08-22T02:53:17.250Z,99984.59
2022-08-22T02:58:42.758Z,99985.22
2022-08-22T03:03:47.478Z,99972.19
2022-08-22T03:09:16.254Z,99973.28
2022-08-22T03:14:29.186Z,99967.63
2022-08-22T03:19:47.702Z,99963.25
2022-08-22T03:25:23.748Z,99975.53
2022-08-22T03:30:44.165Z,99961.72
2022-08-22T03:35:45.443Z,99972.19
2022-08-22T03:41:01.826Z,99968.22
2022-08-22T03:46:42.130Z,99967.13
2022-08-22T03:51:54.546Z,99974.56
2022-08-22T03:57:20.956Z,99980.84
2022-08-22T04:02:43.578Z,99985.38
2022-08-22T04:08:04.370Z,99983.72
2022-08-22T04:13:14.836Z,99990.81
2022-08-22T04:18:40.344Z,99994.53
2022-08-22T04:23:47.758Z,100002.41
2022-08-22T04:28:57.074Z,100003.81
2022-08-22T04:34:10.422Z,99986.88
2022-08-22T04:39:21.391Z,99992.38
2022-08-22T04:44:28.169Z,100003.56
2022-08-22T04:49:38.823Z,100012.19
2022-08-22T04:55:08.251Z,100012.34
2022-08-22T05:00:11.773Z,100012.25
2022-08-22T05:05:15.576Z,100022.00
2022-08-22T05:10:18.850Z,100033.53
2022-08-22T05:15:27.415Z,100031.88
2022-08-22T05:20:30.164Z,100022.09
2022-08-22T05:25:36.432Z,100027.31
2022-08-22T05:30:39.292Z,100023.59
2022-08-22T05:35:57.204Z,100025.72
2022-08-22T05:41:05.635Z,100028.59
2022-08-22T05:46:16.689Z,100013.16
2022-08-22T05:51:24.787Z,100018.63
2022-08-22T05:56:50.133Z,100028.03
2022-08-22T06:02:04.806Z,100034.59
2022-08-22T06:07:14.620Z,100026.63
2022-08-22T06:12:25.949Z,100029.13
2022-08-22T06:17:37.349Z,100030.53
2022-08-22T06:22:49.024Z,100036.47
2022-08-22T06:27:51.387Z,100026.19
2022-08-22T06:32:59.465Z,100045.75
2022-08-22T06:38:02.835Z,100048.19
2022-08-22T06:43:05.374Z,100051.56
2022-08-22T06:48:07.250Z,100052.53
2022-08-22T06:53:18.147Z,100048.59
2022-08-22T06:58:30.994Z,100041.31
2022-08-22T07:03:40.847Z,100042.97
2022-08-22T07:08:42.565Z,100052.97
2022-08-22T07:13:53.716Z,100053.63
2022-08-22T07:18:55.074Z,100053.19
2022-08-22T07:24:00.854Z,100064.25
2022-08-22T07:29:10.734Z,100058.38
2022-08-22T07:34:25.586Z,100060.81
2022-08-22T07:39:37.563Z,100070.34
2022-08-22T07:44:54.307Z,100072.44
2022-08-22T07:50:04.291Z,100066.81
2022-08-22T07:55:08.752Z,100080.56
2022-08-22T08:00:18.239Z,100082.97
2022-08-22T08:05:24.648Z,100078.41
2022-08-22T08:10:31.253Z,100063.09
2022-08-22T08:15:36.020Z,100076.13
2022-08-22T08:20:37.927Z,100060.47
2022-08-22T08:26:02.250Z,100075.91
2022-08-22T08:31:07.532Z,100071.34
2022-08-22T08:36:36.707Z,100079.59
2022-08-22T08:42:09.673Z,100072.91
2022-08-22T08:47:26.158Z,100065.03
2022-08-22T08:52:54.397Z,100070.75
2022-08-22T08:58:06.732Z,100055.59
2022-08-22T09:03:15.895Z,100062.88
2022-08-22T09:08:58.213Z,100048.66
2022-08-22T09:14:27.497Z,100061.34
2022-08-22T09:19:48.029Z,100057.22
2022-08-22T09:25:15.178Z,100056.00
2022-08-22T09:30:19.833Z,100053.63
2022-08-22T09:35:55.785Z,100048.06
2022-08-22T09:41:20.223Z,100043.31
2022-08-22T09:46:36.784Z,100030.03
2022-08-22T09:51:45.187Z,100019.78
2022-08-22T09:57:05.072Z,100015.19
2022-08-22T10:02:16.874Z,100016.50
2022-08-22T10:07:30.368Z,100001.72
2022-08-22T10:12:59.399Z,99994.81
2022-08-22T10:18:10.613Z,99985.34
2022-08-22T10:23:21.334Z,99979.22
2022-08-22T10:28:58.065Z,99975.41
2022-08-22T10:34:11.770Z,99976.09
2022-08-22T10:39:22.603Z,99969.00
2022-08-22T10:44:37.647Z,99966.72
2022-08-22T10:49:57.321Z,99953.03
2022-08-22T10:55:09.920Z,99963.91
2022-08-22T11:00:50.046Z,99962.97
2022-08-22T11:05:57.416Z,99948.63
2022-08-22T11:11:07.189Z,99950.94
2022-08-22T11:16:19.373Z,99943.91
2022-08-22T11:21:46.052Z,99947.66
2022-08-22T11:26:57.621Z,99933.56
2022-08-22T11:32:22.946Z,99940.59
2022-08-22T11:37:56.847Z,99950.19
2022-08-22T11:43:32.610Z,99941.28
2022-08-22T11:49:06.703Z,99921.41
2022-08-22T11:54:31.238Z,99920.31
2022-08-22T11:59:56.134Z,99925.06
2022-08-22T12:05:06.641Z,99910.38
2022-08-22T12:10:15.039Z,99913.63
2022-08-22T12:15:22.571Z,99906.06
2022-08-22T12:20:41.218Z,99897.06
2022-08-22T12:26:29.342Z,99898.13
2022-08-22T12:31:46.959Z,99885.56
2022-08-22T12:37:03.403Z,99869.25
2022-08-22T12:42:40.331Z,99877.91
2022-08-22T12:48:14.688Z,99872.34
2022-08-22T12:53:24.835Z,99866.28
2022-08-22T12:59:02.352Z,99859.03
2022-08-22T13:04:12.487Z,99853.72
2022-08-22T13:09:37.153Z,99849.53
2022-08-22T13:14:38.804Z,99843.28
2022-08-22T13:19:55.588Z,99841.63
2022-08-22T13:25:05.469Z,99836.75
2022-08-22T13:30:37.677Z,99845.72
2022-08-22T13:36:01.072Z,99832.13
2022-08-22T13:41:03.706Z,99831.31
2022-08-22T13:46:10.852Z,99828.84
2022-08-22T13:51:22.376Z,99827.88
2022-08-22T13:56:30.380Z,99828.31
2022-08-22T14:01:32.065Z,99820.88
2022-08-22T14:06:45.754Z,99816.81
2022-08-22T14:11:53.566Z,99807.19
2022-08-22T14:16:58.380Z,99814.09
2022-08-22T14:22:15.919Z,99807.56
2022-08-22T14:27:30.390Z,99809.84
2022-08-22T14:32:36.735Z,99800.81
2022-08-22T14:37:45.661Z,99799.44
2022-08-22T14:42:56.390Z,99785.72
2022-08-22T14:48:30.469Z,99790.97
2022-08-22T14:53:31.684Z,99792.88
2022-08-22T14:58:45.417Z,99792.25
2022-08-22T15:04:05.720Z,99772.44
2022-08-22T15:09:56.801Z,99767.22
2022-08-22T15:15:05.920Z,99777.84
2022-08-22T15:20:11.197Z,99773.38
2022-08-22T15:25:19.358Z,99776.72
2022-08-22T15:30:44.252Z,99769.03
2022-08-22T15:35:46.983Z,99764.34
2022-08-22T15:40:49.845Z,99767.28
2022-08-22T15:46:09.903Z,99759.22
2022-08-22T15:51:32.621Z,99756.38
2022-08-22T15:56:38.971Z,99750.50
2022-08-22T16:01:51.437Z,99762.44
2022-08-22T16:06:57.982Z,99764.53
2022-08-22T16:12:04.068Z,99752.63
2022-08-22T16:17:28.391Z,99757.28
2022-08-22T16:22:59.445Z,99753.47
2022-08-22T16:28:01.211Z,99748.78
2022-08-22T16:33:04.430Z,99752.81
2022-08-22T16:38:05.850Z,99748.34
2022-08-22T16:43:15.235Z,99743.38
2022-08-22T16:48:34.494Z,99742.09
2022-08-22T16:53:38.925Z,99739.50
2022-08-22T16:59:00.879Z,99727.00
2022-08-22T17:04:39.365Z,99744.72
2022-08-22T17:09:58.965Z,99743.78
2022-08-22T17:15:18.643Z,99742.25
2022-08-22T17:20:43.884Z,99746.56
2022-08-22T17:26:12.748Z,99756.63
2022-08-22T17:31:24.069Z,99757.06
2022-08-22T17:36:53.037Z,99756.44
2022-08-22T17:42:00.661Z,99755.78
2022-08-22T17:47:19.579Z,99761.75
2022-08-22T17:52:47.105Z,99766.25
2022-08-22T17:58:06.569Z,99768.59
2022-08-22T18:03:24.445Z,99764.59
2022-08-22T18:14:11.658Z,99759.13
2022-08-22T18:19:37.602Z,99776.03
2022-08-22T18:24:55.275Z,99781.56
2022-08-22T18:30:12.065Z,99784.56
2022-08-22T18:35:22.774Z,99793.31
2022-08-22T18:40:25.248Z,99784.91
2022-08-22T18:45:45.525Z,99798.03
2022-08-22T18:50:48.484Z,99792.28
2022-08-22T18:56:00.360Z,99810.44
2022-08-22T19:01:37.478Z,99812.66
2022-08-22T19:07:05.341Z,99818.16
2022-08-22T19:12:31.683Z,99814.13
2022-08-22T19:18:01.608Z,99815.81
2022-08-22T19:23:37.550Z,99829.56
2022-08-22T19:28:39.122Z,99820.53
2022-08-22T19:33:46.878Z,99828.59
2022-08-22T19:38:53.694Z,99834.19
2022-08-22T19:43:55.265Z,99829.38
2022-08-22T19:48:56.800Z,99824.75
2022-08-22T19:54:00.999Z,99832.34
2022-08-22T19:59:12.213Z,99834.94
2022-08-22T20:04:44.452Z,99841.09
2022-08-22T20:10:19.224Z,99835.75
2022-08-22T20:15:23.986Z,99844.63
2022-08-22T20:20:35.453Z,99841.66
2022-08-22T20:25:49.310Z,99842.25
2022-08-22T20:30:57.832Z,99842.50
2022-08-22T20:36:05.124Z,99845.22
2022-08-22T20:41:39.495Z,99849.22
2022-08-22T20:46:46.803Z,99858.34
2022-08-22T20:52:08.502Z,99847.97
2022-08-22T20:57:19.240Z,99860.53
2022-08-22T21:02:24.832Z,99864.56
2022-08-22T21:07:28.310Z,99853.31
2022-08-22T21:12:29.645Z,99860.66
2022-08-22T21:17:34.315Z,99872.75
2022-08-22T21:22:37.149Z,99870.25
2022-08-22T21:27:38.647Z,99878.06
2022-08-22T21:32:42.971Z,99885.47
2022-08-22T21:37:45.809Z,99903.00
2022-08-22T21:43:06.637Z,99898.38
2022-08-22T21:48:38.754Z,99895.88
2022-08-22T21:53:40.659Z,99896.59
2022-08-22T21:58:42.650Z,99896.81
2022-08-22T22:03:44.050Z,99897.47
2022-08-22T22:08:46.398Z,99902.75
2022-08-22T22:13:47.890Z,99897.88
2022-08-22T22:18:49.278Z,99910.75
2022-08-22T22:23:50.699Z,99926.44
2022-08-22T22:28:52.918Z,99922.28
2022-08-22T22:33:54.360Z,99924.81
2022-08-22T22:38:55.717Z,99933.81
2022-08-22T22:43:57.282Z,99929.44
2022-08-22T22:48:58.682Z,99943.28
2022-08-22T22:54:00.140Z,99947.06
2022-08-22T22:59:13.115Z,99943.31
2022-08-22T23:04:15.044Z,99957.81
2022-08-22T23:09:16.382Z,99951.59
2022-08-22T23:14:19.605Z,99957.22
2022-08-22T23:19:21.142Z,99963.53
2022-08-22T23:24:23.989Z,99981.13
2022-08-22T23:29:26.369Z,99975.69
2022-08-22T23:34:31.310Z,99986.13
2022-08-22T23:39:33.370Z,99991.13
2022-08-22T23:44:37.277Z,100000.78
2022-08-22T23:49:40.220Z,100004.94
2022-08-22T23:54:41.705Z,99998.28
2022-08-22T23:59:48.576Z,100003.69
